sensor_id;sensor_type;location;lat;lon;timestamp;P1;P2;P0
77777;PMS5003;66966;-34.746;138.604;2023-08-06T00:01:32;0;0;
77777;PMS5003;66966;-34.746;138.604;2023-08-06T00:03:58;0;0;
77777;PMS5003;66966;-34.746;138.604;2023-08-06T00:06:24;0;0;
77777;PMS5003;66966;-34.746;138.604;2023-08-06T00:08:49;0;0;
77777;PMS5003;66966;-34.746;138.604;2023-08-06T00:11:15;0;0;
77777;PMS5003;66966;-34.746;138.604;2023-08-06T00:13:41;0;0;
77777;PMS5003;66966;-34.746;138.604;2023-08-06T00:16:10;0;0;
77777;PMS5003;66966;-34.746;138.604;2023-08-06T00:18:32;1;1;
77777;PMS5003;66966;-34.746;138.604;2023-08-06T00:20:58;3;3;
77777;PMS5003;66966;-34.746;138.604;2023-08-06T00:23:24;2;1;
77777;PMS5003;66966;-34.746;138.604;2023-08-06T00:25:49;0;0;
77777;PMS5003;66966;-34.746;138.604;2023-08-06T00:28:15;0;0;
77777;PMS5003;66966;-34.746;138.604;2023-08-06T00:30:41;0;0;
77777;PMS5003;66966;-34.746;138.604;2023-08-06T00:33:06;0;0;
77777;PMS5003;66966;-34.746;138.604;2023-08-06T00:35:32;0;0;
77777;PMS5003;66966;-34.746;138.604;2023-08-06T00:37:58;0;0;
77777;PMS5003;66966;-34.746;138.604;2023-08-06T00:40:23;0;0;
77777;PMS5003;66966;-34.746;138.604;2023-08-06T00:42:49;0;0;
77777;PMS5003;66966;-34.746;138.604;2023-08-06T00:45:15;0;0;
77777;PMS5003;66966;-34.746;138.604;2023-08-06T00:47:41;0;0;
77777;PMS5003;66966;-34.746;138.604;2023-08-06T00:50:07;0;0;
77777;PMS5003;66966;-34.746;138.604;2023-08-06T00:52:32;0;0;
77777;PMS5003;66966;-34.746;138.604;2023-08-06T00:54:58;0;0;
77777;PMS5003;66966;-34.746;138.604;2023-08-06T00:57:24;0;0;
77777;PMS5003;66966;-34.746;138.604;2023-08-06T00:59:49;0;0;
77777;PMS5003;66966;-34.746;138.604;2023-08-06T01:02:15;0;0;
77777;PMS5003;66966;-34.746;138.604;2023-08-06T01:04:40;0;0;
77777;PMS5003;66966;-34.746;138.604;2023-08-06T01:07:08;0;0;
77777;PMS5003;66966;-34.746;138.604;2023-08-06T01:09:34;0;0;
77777;PMS5003;66966;-34.746;138.604;2023-08-06T01:11:59;0;0;
77777;PMS5003;66966;-34.746;138.604;2023-08-06T01:14:23;0;0;
77777;PMS5003;66966;-34.746;138.604;2023-08-06T01:16:49;0;0;
77777;PMS5003;66966;-34.746;138.604;2023-08-06T01:19:18;0;0;
77777;PMS5003;66966;-34.746;138.604;2023-08-06T01:21:40;0;0;
77777;PMS5003;66966;-34.746;138.604;2023-08-06T01:24:05;0;0;
77777;PMS5003;66966;-34.746;138.604;2023-08-06T01:26:33;0;0;
77777;PMS5003;66966;-34.746;138.604;2023-08-06T01:28:59;0;0;
77777;PMS5003;66966;-34.746;138.604;2023-08-06T01:31:24;0;0;
77777;PMS5003;66966;-34.746;138.604;2023-08-06T01:33:48;0;0;
77777;PMS5003;66966;-34.746;138.604;2023-08-06T01:36:14;1;0;
77777;PMS5003;66966;-34.746;138.604;2023-08-06T01:38:39;0;0;
77777;PMS5003;66966;-34.746;138.604;2023-08-06T01:41:05;0;0;
77777;PMS5003;66966;-34.746;138.604;2023-08-06T01:43:31;0;0;
77777;PMS5003;66966;-34.746;138.604;2023-08-06T01:45:56;1;0;
77777;PMS5003;66966;-34.746;138.604;2023-08-06T01:48:22;0;0;
77777;PMS5003;66966;-34.746;138.604;2023-08-06T01:50:48;0;0;
77777;PMS5003;66966;-34.746;138.604;2023-08-06T01:53:13;0;0;
77777;PMS5003;66966;-34.746;138.604;2023-08-06T01:55:39;0;0;
77777;PMS5003;66966;-34.746;138.604;2023-08-06T01:58:05;0;0;
77777;PMS5003;66966;-34.746;138.604;2023-08-06T02:00:31;0;0;
77777;PMS5003;66966;-34.746;138.604;2023-08-06T02:02:56;0;0;
77777;PMS5003;66966;-34.746;138.604;2023-08-06T02:05:21;0;0;
77777;PMS5003;66966;-34.746;138.604;2023-08-06T02:07:47;0;0;
77777;PMS5003;66966;-34.746;138.604;2023-08-06T02:10:13;0;0;
77777;PMS5003;66966;-34.746;138.604;2023-08-06T02:12:39;1;1;
77777;PMS5003;66966;-34.746;138.604;2023-08-06T02:15:04;1;1;
77777;PMS5003;66966;-34.746;138.604;2023-08-06T02:17:30;0;0;
77777;PMS5003;66966;-34.746;138.604;2023-08-06T02:19:55;0;0;
77777;PMS5003;66966;-34.746;138.604;2023-08-06T02:22:21;0;0;
77777;PMS5003;66966;-34.746;138.604;2023-08-06T02:24:47;1;0;
77777;PMS5003;66966;-34.746;138.604;2023-08-06T02:27:12;0;0;
77777;PMS5003;66966;-34.746;138.604;2023-08-06T02:29:40;0;0;
77777;PMS5003;66966;-34.746;138.604;2023-08-06T02:32:04;0;0;
77777;PMS5003;66966;-34.746;138.604;2023-08-06T02:34:29;0;0;
77777;PMS5003;66966;-34.746;138.604;2023-08-06T02:36:55;0;0;
77777;PMS5003;66966;-34.746;138.604;2023-08-06T02:39:20;0;0;
77777;PMS5003;66966;-34.746;138.604;2023-08-06T02:41:46;0;0;
77777;PMS5003;66966;-34.746;138.604;2023-08-06T02:44:11;0;0;
77777;PMS5003;66966;-34.746;138.604;2023-08-06T02:46:37;1;1;
77777;PMS5003;66966;-34.746;138.604;2023-08-06T02:49:03;0;0;
77777;PMS5003;66966;-34.746;138.604;2023-08-06T02:51:28;0;0;
77777;PMS5003;66966;-34.746;138.604;2023-08-06T02:53:54;0;0;
77777;PMS5003;66966;-34.746;138.604;2023-08-06T02:56:19;0;0;
77777;PMS5003;66966;-34.746;138.604;2023-08-06T02:58:45;0;0;
77777;PMS5003;66966;-34.746;138.604;2023-08-06T03:01:11;2;1;
77777;PMS5003;66966;-34.746;138.604;2023-08-06T03:03:36;0;0;
77777;PMS5003;66966;-34.746;138.604;2023-08-06T03:06:02;0;0;
77777;PMS5003;66966;-34.746;138.604;2023-08-06T03:08:27;0;0;
77777;PMS5003;66966;-34.746;138.604;2023-08-06T03:10:53;0;0;
77777;PMS5003;66966;-34.746;138.604;2023-08-06T03:13:19;0;0;
77777;PMS5003;66966;-34.746;138.604;2023-08-06T03:15:44;0;0;
77777;PMS5003;66966;-34.746;138.604;2023-08-06T03:18:10;0;0;
77777;PMS5003;66966;-34.746;138.604;2023-08-06T03:20:36;0;0;
77777;PMS5003;66966;-34.746;138.604;2023-08-06T03:23:01;0;0;
77777;PMS5003;66966;-34.746;138.604;2023-08-06T03:25:27;0;0;
77777;PMS5003;66966;-34.746;138.604;2023-08-06T03:27:52;0;0;
77777;PMS5003;66966;-34.746;138.604;2023-08-06T03:30:18;0;0;
77777;PMS5003;66966;-34.746;138.604;2023-08-06T03:32:43;0;0;
77777;PMS5003;66966;-34.746;138.604;2023-08-06T03:35:09;0;0;
77777;PMS5003;66966;-34.746;138.604;2023-08-06T03:37:35;0;0;
77777;PMS5003;66966;-34.746;138.604;2023-08-06T03:40:00;0;0;
77777;PMS5003;66966;-34.746;138.604;2023-08-06T03:42:26;0;0;
77777;PMS5003;66966;-34.746;138.604;2023-08-06T03:44:51;1;0;
77777;PMS5003;66966;-34.746;138.604;2023-08-06T03:47:17;0;0;
77777;PMS5003;66966;-34.746;138.604;2023-08-06T03:49:43;0;0;
77777;PMS5003;66966;-34.746;138.604;2023-08-06T03:52:08;1;1;
77777;PMS5003;66966;-34.746;138.604;2023-08-06T03:54:34;1;1;
77777;PMS5003;66966;-34.746;138.604;2023-08-06T03:56:59;1;1;
77777;PMS5003;66966;-34.746;138.604;2023-08-06T03:59:25;1;1;
77777;PMS5003;66966;-34.746;138.604;2023-08-06T04:01:51;0;0;
77777;PMS5003;66966;-34.746;138.604;2023-08-06T04:04:16;0;0;
77777;PMS5003;66966;-34.746;138.604;2023-08-06T04:06:42;0;0;
77777;PMS5003;66966;-34.746;138.604;2023-08-06T04:09:08;1;0;
77777;PMS5003;66966;-34.746;138.604;2023-08-06T04:11:34;1;1;
77777;PMS5003;66966;-34.746;138.604;2023-08-06T04:13:59;0;0;
77777;PMS5003;66966;-34.746;138.604;2023-08-06T04:16:25;0;0;
77777;PMS5003;66966;-34.746;138.604;2023-08-06T04:18:51;0;0;
77777;PMS5003;66966;-34.746;138.604;2023-08-06T04:21:16;0;0;
77777;PMS5003;66966;-34.746;138.604;2023-08-06T04:23:41;1;1;
77777;PMS5003;66966;-34.746;138.604;2023-08-06T04:26:07;0;0;
77777;PMS5003;66966;-34.746;138.604;2023-08-06T04:28:32;0;0;
77777;PMS5003;66966;-34.746;138.604;2023-08-06T04:30:58;0;0;
77777;PMS5003;66966;-34.746;138.604;2023-08-06T04:33:23;1;1;
77777;PMS5003;66966;-34.746;138.604;2023-08-06T04:38:14;0;0;
77777;PMS5003;66966;-34.746;138.604;2023-08-06T04:40:40;1;0;
77777;PMS5003;66966;-34.746;138.604;2023-08-06T04:43:05;0;0;
77777;PMS5003;66966;-34.746;138.604;2023-08-06T04:45:31;0;0;
77777;PMS5003;66966;-34.746;138.604;2023-08-06T04:47:56;0;0;
77777;PMS5003;66966;-34.746;138.604;2023-08-06T04:50:22;1;1;
77777;PMS5003;66966;-34.746;138.604;2023-08-06T04:52:47;0;0;
77777;PMS5003;66966;-34.746;138.604;2023-08-06T04:55:13;0;0;
77777;PMS5003;66966;-34.746;138.604;2023-08-06T04:57:38;0;0;
77777;PMS5003;66966;-34.746;138.604;2023-08-06T05:00:04;0;0;
77777;PMS5003;66966;-34.746;138.604;2023-08-06T05:02:29;0;0;
77777;PMS5003;66966;-34.746;138.604;2023-08-06T05:04:55;0;0;
77777;PMS5003;66966;-34.746;138.604;2023-08-06T05:07:20;0;0;
77777;PMS5003;66966;-34.746;138.604;2023-08-06T05:09:46;0;0;
77777;PMS5003;66966;-34.746;138.604;2023-08-06T05:12:11;1;1;
77777;PMS5003;66966;-34.746;138.604;2023-08-06T05:14:37;0;0;
77777;PMS5003;66966;-34.746;138.604;2023-08-06T05:17:02;0;0;
77777;PMS5003;66966;-34.746;138.604;2023-08-06T05:19:28;1;1;
77777;PMS5003;66966;-34.746;138.604;2023-08-06T05:21:53;2;1;
77777;PMS5003;66966;-34.746;138.604;2023-08-06T05:24:19;1;1;
77777;PMS5003;66966;-34.746;138.604;2023-08-06T05:26:44;1;1;
77777;PMS5003;66966;-34.746;138.604;2023-08-06T05:29:10;0;0;
77777;PMS5003;66966;-34.746;138.604;2023-08-06T05:31:35;0;0;
77777;PMS5003;66966;-34.746;138.604;2023-08-06T05:34:01;0;0;
77777;PMS5003;66966;-34.746;138.604;2023-08-06T05:36:26;0;0;
77777;PMS5003;66966;-34.746;138.604;2023-08-06T05:38:52;0;0;
77777;PMS5003;66966;-34.746;138.604;2023-08-06T05:41:17;0;0;
77777;PMS5003;66966;-34.746;138.604;2023-08-06T05:43:43;0;0;
77777;PMS5003;66966;-34.746;138.604;2023-08-06T05:46:08;0;0;
77777;PMS5003;66966;-34.746;138.604;2023-08-06T05:48:34;1;0;
77777;PMS5003;66966;-34.746;138.604;2023-08-06T05:51:00;0;0;
77777;PMS5003;66966;-34.746;138.604;2023-08-06T05:53:25;1;1;
77777;PMS5003;66966;-34.746;138.604;2023-08-06T05:55:51;0;0;
77777;PMS5003;66966;-34.746;138.604;2023-08-06T05:58:16;0;0;
77777;PMS5003;66966;-34.746;138.604;2023-08-06T06:00:42;0;0;
77777;PMS5003;66966;-34.746;138.604;2023-08-06T06:03:08;1;1;
77777;PMS5003;66966;-34.746;138.604;2023-08-06T06:05:33;1;1;
77777;PMS5003;66966;-34.746;138.604;2023-08-06T06:07:58;1;1;
77777;PMS5003;66966;-34.746;138.604;2023-08-06T06:10:24;0;0;
77777;PMS5003;66966;-34.746;138.604;2023-08-06T06:12:50;1;1;
77777;PMS5003;66966;-34.746;138.604;2023-08-06T06:15:15;1;1;
77777;PMS5003;66966;-34.746;138.604;2023-08-06T06:17:41;2;2;
77777;PMS5003;66966;-34.746;138.604;2023-08-06T06:20:07;1;1;
77777;PMS5003;66966;-34.746;138.604;2023-08-06T06:22:32;1;1;
77777;PMS5003;66966;-34.746;138.604;2023-08-06T06:24:57;1;1;
77777;PMS5003;66966;-34.746;138.604;2023-08-06T06:27:23;2;2;
77777;PMS5003;66966;-34.746;138.604;2023-08-06T06:29:48;1;1;
77777;PMS5003;66966;-34.746;138.604;2023-08-06T06:32:14;1;1;
77777;PMS5003;66966;-34.746;138.604;2023-08-06T06:34:40;1;1;
77777;PMS5003;66966;-34.746;138.604;2023-08-06T06:37:05;2;2;
77777;PMS5003;66966;-34.746;138.604;2023-08-06T06:39:31;1;1;
77777;PMS5003;66966;-34.746;138.604;2023-08-06T06:41:56;4;3;
77777;PMS5003;66966;-34.746;138.604;2023-08-06T06:44:22;2;2;
77777;PMS5003;66966;-34.746;138.604;2023-08-06T06:46:47;1;1;
77777;PMS5003;66966;-34.746;138.604;2023-08-06T06:49:13;1;1;
77777;PMS5003;66966;-34.746;138.604;2023-08-06T06:51:39;0;0;
77777;PMS5003;66966;-34.746;138.604;2023-08-06T06:54:04;1;0;
77777;PMS5003;66966;-34.746;138.604;2023-08-06T06:56:29;0;0;
77777;PMS5003;66966;-34.746;138.604;2023-08-06T06:58:55;0;0;
77777;PMS5003;66966;-34.746;138.604;2023-08-06T07:01:21;0;0;
77777;PMS5003;66966;-34.746;138.604;2023-08-06T07:03:46;0;0;
77777;PMS5003;66966;-34.746;138.604;2023-08-06T07:06:12;1;1;
77777;PMS5003;66966;-34.746;138.604;2023-08-06T07:08:37;1;1;
77777;PMS5003;66966;-34.746;138.604;2023-08-06T07:11:03;1;1;
77777;PMS5003;66966;-34.746;138.604;2023-08-06T07:13:29;2;2;
77777;PMS5003;66966;-34.746;138.604;2023-08-06T07:15:54;1;1;
77777;PMS5003;66966;-34.746;138.604;2023-08-06T07:18:20;4;3;
77777;PMS5003;66966;-34.746;138.604;2023-08-06T07:20:48;3;2;
77777;PMS5003;66966;-34.746;138.604;2023-08-06T07:23:11;1;0;
77777;PMS5003;66966;-34.746;138.604;2023-08-06T07:25:37;1;1;
77777;PMS5003;66966;-34.746;138.604;2023-08-06T07:28:02;1;1;
77777;PMS5003;66966;-34.746;138.604;2023-08-06T07:30:28;1;1;
77777;PMS5003;66966;-34.746;138.604;2023-08-06T07:32:53;1;1;
77777;PMS5003;66966;-34.746;138.604;2023-08-06T07:35:19;1;1;
77777;PMS5003;66966;-34.746;138.604;2023-08-06T07:37:45;1;1;
77777;PMS5003;66966;-34.746;138.604;2023-08-06T07:40:10;1;1;
77777;PMS5003;66966;-34.746;138.604;2023-08-06T07:42:36;0;0;
77777;PMS5003;66966;-34.746;138.604;2023-08-06T07:45:01;2;2;
77777;PMS5003;66966;-34.746;138.604;2023-08-06T07:47:27;2;2;
77777;PMS5003;66966;-34.746;138.604;2023-08-06T07:49:53;2;2;
77777;PMS5003;66966;-34.746;138.604;2023-08-06T07:52:18;0;0;
77777;PMS5003;66966;-34.746;138.604;2023-08-06T07:54:44;1;1;
77777;PMS5003;66966;-34.746;138.604;2023-08-06T07:57:09;1;1;
77777;PMS5003;66966;-34.746;138.604;2023-08-06T07:59:35;1;1;
77777;PMS5003;66966;-34.746;138.604;2023-08-06T08:02:01;2;2;
77777;PMS5003;66966;-34.746;138.604;2023-08-06T08:04:26;0;0;
77777;PMS5003;66966;-34.746;138.604;2023-08-06T08:06:52;0;0;
77777;PMS5003;66966;-34.746;138.604;2023-08-06T08:09:18;0;0;
77777;PMS5003;66966;-34.746;138.604;2023-08-06T08:11:43;1;1;
77777;PMS5003;66966;-34.746;138.604;2023-08-06T08:14:09;1;1;
77777;PMS5003;66966;-34.746;138.604;2023-08-06T08:16:35;0;0;
77777;PMS5003;66966;-34.746;138.604;2023-08-06T08:19:00;0;0;
77777;PMS5003;66966;-34.746;138.604;2023-08-06T08:21:26;1;1;
77777;PMS5003;66966;-34.746;138.604;2023-08-06T08:23:52;2;1;
77777;PMS5003;66966;-34.746;138.604;2023-08-06T08:26:18;2;1;
77777;PMS5003;66966;-34.746;138.604;2023-08-06T08:28:43;2;2;
77777;PMS5003;66966;-34.746;138.604;2023-08-06T08:31:09;2;2;
77777;PMS5003;66966;-34.746;138.604;2023-08-06T08:33:34;3;2;
77777;PMS5003;66966;-34.746;138.604;2023-08-06T08:36:00;2;2;
77777;PMS5003;66966;-34.746;138.604;2023-08-06T08:38:26;3;3;
77777;PMS5003;66966;-34.746;138.604;2023-08-06T08:40:52;2;2;
77777;PMS5003;66966;-34.746;138.604;2023-08-06T08:43:17;2;2;
77777;PMS5003;66966;-34.746;138.604;2023-08-06T08:45:43;2;2;
77777;PMS5003;66966;-34.746;138.604;2023-08-06T08:48:09;3;3;
77777;PMS5003;66966;-34.746;138.604;2023-08-06T08:50:35;5;5;
77777;PMS5003;66966;-34.746;138.604;2023-08-06T08:53:00;9;9;
77777;PMS5003;66966;-34.746;138.604;2023-08-06T08:55:26;9;9;
77777;PMS5003;66966;-34.746;138.604;2023-08-06T08:57:51;12;11;
77777;PMS5003;66966;-34.746;138.604;2023-08-06T09:00:17;13;13;
77777;PMS5003;66966;-34.746;138.604;2023-08-06T09:02:43;18;17;
77777;PMS5003;66966;-34.746;138.604;2023-08-06T09:05:08;16;15;
77777;PMS5003;66966;-34.746;138.604;2023-08-06T09:07:35;12;12;
77777;PMS5003;66966;-34.746;138.604;2023-08-06T09:10:00;9;9;
77777;PMS5003;66966;-34.746;138.604;2023-08-06T09:12:25;9;9;
77777;PMS5003;66966;-34.746;138.604;2023-08-06T09:14:51;9;9;
77777;PMS5003;66966;-34.746;138.604;2023-08-06T09:17:17;6;6;
77777;PMS5003;66966;-34.746;138.604;2023-08-06T09:19:42;8;7;
77777;PMS5003;66966;-34.746;138.604;2023-08-06T09:22:08;6;6;
77777;PMS5003;66966;-34.746;138.604;2023-08-06T09:24:34;6;6;
77777;PMS5003;66966;-34.746;138.604;2023-08-06T09:27:01;6;6;
77777;PMS5003;66966;-34.746;138.604;2023-08-06T09:29:25;8;7;
77777;PMS5003;66966;-34.746;138.604;2023-08-06T09:31:51;9;8;
77777;PMS5003;66966;-34.746;138.604;2023-08-06T09:34:17;11;10;
77777;PMS5003;66966;-34.746;138.604;2023-08-06T09:36:43;13;12;
77777;PMS5003;66966;-34.746;138.604;2023-08-06T09:41:34;15;15;
77777;PMS5003;66966;-34.746;138.604;2023-08-06T09:44:00;18;17;
77777;PMS5003;66966;-34.746;138.604;2023-08-06T09:46:25;16;16;
77777;PMS5003;66966;-34.746;138.604;2023-08-06T09:48:51;16;16;
77777;PMS5003;66966;-34.746;138.604;2023-08-06T09:51:17;15;15;
77777;PMS5003;66966;-34.746;138.604;2023-08-06T09:53:43;16;16;
77777;PMS5003;66966;-34.746;138.604;2023-08-06T09:56:09;19;17;
77777;PMS5003;66966;-34.746;138.604;2023-08-06T09:58:34;31;28;
77777;PMS5003;66966;-34.746;138.604;2023-08-06T10:01:00;50;46;
77777;PMS5003;66966;-34.746;138.604;2023-08-06T10:03:25;46;44;
77777;PMS5003;66966;-34.746;138.604;2023-08-06T10:05:50;38;36;
77777;PMS5003;66966;-34.746;138.604;2023-08-06T10:08:16;35;34;
77777;PMS5003;66966;-34.746;138.604;2023-08-06T10:10:41;29;29;
77777;PMS5003;66966;-34.746;138.604;2023-08-06T10:13:06;26;24;
77777;PMS5003;66966;-34.746;138.604;2023-08-06T10:15:32;24;23;
77777;PMS5003;66966;-34.746;138.604;2023-08-06T10:18:47;20;20;
77777;PMS5003;66966;-34.746;138.604;2023-08-06T10:20:46;23;22;
77777;PMS5003;66966;-34.746;138.604;2023-08-06T10:23:11;22;21;
77777;PMS5003;66966;-34.746;138.604;2023-08-06T10:25:40;23;22;
77777;PMS5003;66966;-34.746;138.604;2023-08-06T10:30:28;26;24;
77777;PMS5003;66966;-34.746;138.604;2023-08-06T10:32:53;28;27;
77777;PMS5003;66966;-34.746;138.604;2023-08-06T10:37:44;25;25;
77777;PMS5003;66966;-34.746;138.604;2023-08-06T10:40:09;23;22;
77777;PMS5003;66966;-34.746;138.604;2023-08-06T10:42:34;19;17;
77777;PMS5003;66966;-34.746;138.604;2023-08-06T10:47:26;21;18;
77777;PMS5003;66966;-34.746;138.604;2023-08-06T10:49:51;20;18;
77777;PMS5003;66966;-34.746;138.604;2023-08-06T10:52:17;21;20;
77777;PMS5003;66966;-34.746;138.604;2023-08-06T10:54:42;22;22;
77777;PMS5003;66966;-34.746;138.604;2023-08-06T10:57:09;23;22;
77777;PMS5003;66966;-34.746;138.604;2023-08-06T10:59:33;24;23;
77777;PMS5003;66966;-34.746;138.604;2023-08-06T11:01:59;20;20;
77777;PMS5003;66966;-34.746;138.604;2023-08-06T11:04:25;22;21;
77777;PMS5003;66966;-34.746;138.604;2023-08-06T11:06:52;25;25;
77777;PMS5003;66966;-34.746;138.604;2023-08-06T11:09:16;32;32;
77777;PMS5003;66966;-34.746;138.604;2023-08-06T11:11:42;42;39;
77777;PMS5003;66966;-34.746;138.604;2023-08-06T11:14:08;45;43;
77777;PMS5003;66966;-34.746;138.604;2023-08-06T11:16:33;47;44;
77777;PMS5003;66966;-34.746;138.604;2023-08-06T11:18:58;41;38;
77777;PMS5003;66966;-34.746;138.604;2023-08-06T11:21:24;34;33;
77777;PMS5003;66966;-34.746;138.604;2023-08-06T11:23:49;37;34;
77777;PMS5003;66966;-34.746;138.604;2023-08-06T11:26:19;38;34;
77777;PMS5003;66966;-34.746;138.604;2023-08-06T11:28:40;32;28;
77777;PMS5003;66966;-34.746;138.604;2023-08-06T11:31:06;25;24;
77777;PMS5003;66966;-34.746;138.604;2023-08-06T11:33:31;23;22;
77777;PMS5003;66966;-34.746;138.604;2023-08-06T11:35:57;21;20;
77777;PMS5003;66966;-34.746;138.604;2023-08-06T11:38:24;18;16;
77777;PMS5003;66966;-34.746;138.604;2023-08-06T11:40:48;16;15;
77777;PMS5003;66966;-34.746;138.604;2023-08-06T11:43:13;15;14;
77777;PMS5003;66966;-34.746;138.604;2023-08-06T11:45:38;12;12;
77777;PMS5003;66966;-34.746;138.604;2023-08-06T11:48:04;13;12;
77777;PMS5003;66966;-34.746;138.604;2023-08-06T11:50:31;11;10;
77777;PMS5003;66966;-34.746;138.604;2023-08-06T11:52:57;9;9;
77777;PMS5003;66966;-34.746;138.604;2023-08-06T11:55:22;9;8;
77777;PMS5003;66966;-34.746;138.604;2023-08-06T11:57:47;11;10;
77777;PMS5003;66966;-34.746;138.604;2023-08-06T12:00:13;9;9;
77777;PMS5003;66966;-34.746;138.604;2023-08-06T12:02:39;8;8;
77777;PMS5003;66966;-34.746;138.604;2023-08-06T12:05:09;8;8;
77777;PMS5003;66966;-34.746;138.604;2023-08-06T12:07:30;7;7;
77777;PMS5003;66966;-34.746;138.604;2023-08-06T12:09:56;7;6;
77777;PMS5003;66966;-34.746;138.604;2023-08-06T12:12:22;8;8;
77777;PMS5003;66966;-34.746;138.604;2023-08-06T12:14:48;7;6;
77777;PMS5003;66966;-34.746;138.604;2023-08-06T12:17:13;6;6;
77777;PMS5003;66966;-34.746;138.604;2023-08-06T12:19:39;8;8;
77777;PMS5003;66966;-34.746;138.604;2023-08-06T12:22:05;8;7;
77777;PMS5003;66966;-34.746;138.604;2023-08-06T12:24:31;9;8;
77777;PMS5003;66966;-34.746;138.604;2023-08-06T12:26:57;9;8;
77777;PMS5003;66966;-34.746;138.604;2023-08-06T12:29:22;8;8;
77777;PMS5003;66966;-34.746;138.604;2023-08-06T12:31:48;8;7;
77777;PMS5003;66966;-34.746;138.604;2023-08-06T12:34:14;7;6;
77777;PMS5003;66966;-34.746;138.604;2023-08-06T12:36:39;7;7;
77777;PMS5003;66966;-34.746;138.604;2023-08-06T12:39:05;6;6;
77777;PMS5003;66966;-34.746;138.604;2023-08-06T12:41:30;8;6;
77777;PMS5003;66966;-34.746;138.604;2023-08-06T12:43:55;7;4;
77777;PMS5003;66966;-34.746;138.604;2023-08-06T12:46:21;7;6;
77777;PMS5003;66966;-34.746;138.604;2023-08-06T12:48:46;7;7;
77777;PMS5003;66966;-34.746;138.604;2023-08-06T12:51:13;7;7;
77777;PMS5003;66966;-34.746;138.604;2023-08-06T12:53:38;9;7;
77777;PMS5003;66966;-34.746;138.604;2023-08-06T12:56:04;7;7;
77777;PMS5003;66966;-34.746;138.604;2023-08-06T12:58:30;7;6;
77777;PMS5003;66966;-34.746;138.604;2023-08-06T13:00:56;8;7;
77777;PMS5003;66966;-34.746;138.604;2023-08-06T13:03:22;6;6;
77777;PMS5003;66966;-34.746;138.604;2023-08-06T13:05:47;7;6;
77777;PMS5003;66966;-34.746;138.604;2023-08-06T13:08:13;7;5;
77777;PMS5003;66966;-34.746;138.604;2023-08-06T13:10:39;6;6;
77777;PMS5003;66966;-34.746;138.604;2023-08-06T13:13:05;5;5;
77777;PMS5003;66966;-34.746;138.604;2023-08-06T13:15:31;4;4;
77777;PMS5003;66966;-34.746;138.604;2023-08-06T13:17:57;4;4;
77777;PMS5003;66966;-34.746;138.604;2023-08-06T13:20:23;7;6;
77777;PMS5003;66966;-34.746;138.604;2023-08-06T13:22:48;6;5;
77777;PMS5003;66966;-34.746;138.604;2023-08-06T13:25:14;7;7;
77777;PMS5003;66966;-34.746;138.604;2023-08-06T13:27:40;7;7;
77777;PMS5003;66966;-34.746;138.604;2023-08-06T13:30:07;8;7;
77777;PMS5003;66966;-34.746;138.604;2023-08-06T13:32:32;8;6;
77777;PMS5003;66966;-34.746;138.604;2023-08-06T13:34:58;6;6;
77777;PMS5003;66966;-34.746;138.604;2023-08-06T13:37:24;7;7;
77777;PMS5003;66966;-34.746;138.604;2023-08-06T13:39:50;9;7;
77777;PMS5003;66966;-34.746;138.604;2023-08-06T13:42:15;9;9;
77777;PMS5003;66966;-34.746;138.604;2023-08-06T13:44:41;10;9;
77777;PMS5003;66966;-34.746;138.604;2023-08-06T13:47:07;10;9;
77777;PMS5003;66966;-34.746;138.604;2023-08-06T13:49:33;8;8;
77777;PMS5003;66966;-34.746;138.604;2023-08-06T13:51:59;12;11;
77777;PMS5003;66966;-34.746;138.604;2023-08-06T13:54:25;10;10;
77777;PMS5003;66966;-34.746;138.604;2023-08-06T13:56:51;14;10;
77777;PMS5003;66966;-34.746;138.604;2023-08-06T13:59:17;12;12;
77777;PMS5003;66966;-34.746;138.604;2023-08-06T14:01:42;10;8;
77777;PMS5003;66966;-34.746;138.604;2023-08-06T14:04:08;9;9;
77777;PMS5003;66966;-34.746;138.604;2023-08-06T14:06:33;9;9;
77777;PMS5003;66966;-34.746;138.604;2023-08-06T14:08:58;11;11;
77777;PMS5003;66966;-34.746;138.604;2023-08-06T14:11:24;11;9;
77777;PMS5003;66966;-34.746;138.604;2023-08-06T14:13:49;9;7;
77777;PMS5003;66966;-34.746;138.604;2023-08-06T14:16:15;12;9;
77777;PMS5003;66966;-34.746;138.604;2023-08-06T14:18:40;9;8;
77777;PMS5003;66966;-34.746;138.604;2023-08-06T14:21:05;12;9;
77777;PMS5003;66966;-34.746;138.604;2023-08-06T14:23:30;12;12;
77777;PMS5003;66966;-34.746;138.604;2023-08-06T14:25:56;16;14;
77777;PMS5003;66966;-34.746;138.604;2023-08-06T14:28:21;11;9;
77777;PMS5003;66966;-34.746;138.604;2023-08-06T14:30:46;11;9;
77777;PMS5003;66966;-34.746;138.604;2023-08-06T14:33:11;9;9;
77777;PMS5003;66966;-34.746;138.604;2023-08-06T14:35:36;12;12;
77777;PMS5003;66966;-34.746;138.604;2023-08-06T14:38:02;14;14;
77777;PMS5003;66966;-34.746;138.604;2023-08-06T14:40:27;12;12;
77777;PMS5003;66966;-34.746;138.604;2023-08-06T14:42:52;12;12;
77777;PMS5003;66966;-34.746;138.604;2023-08-06T14:45:17;8;8;
77777;PMS5003;66966;-34.746;138.604;2023-08-06T14:47:42;9;9;
77777;PMS5003;66966;-34.746;138.604;2023-08-06T14:50:08;12;11;
77777;PMS5003;66966;-34.746;138.604;2023-08-06T14:52:33;9;9;
77777;PMS5003;66966;-34.746;138.604;2023-08-06T14:54:59;9;8;
77777;PMS5003;66966;-34.746;138.604;2023-08-06T14:57:23;8;8;
77777;PMS5003;66966;-34.746;138.604;2023-08-06T14:59:48;10;8;
77777;PMS5003;66966;-34.746;138.604;2023-08-06T15:02:13;9;8;
77777;PMS5003;66966;-34.746;138.604;2023-08-06T15:04:38;7;7;
77777;PMS5003;66966;-34.746;138.604;2023-08-06T15:07:03;6;6;
77777;PMS5003;66966;-34.746;138.604;2023-08-06T15:09:28;6;6;
77777;PMS5003;66966;-34.746;138.604;2023-08-06T15:11:53;6;6;
77777;PMS5003;66966;-34.746;138.604;2023-08-06T15:14:18;7;6;
77777;PMS5003;66966;-34.746;138.604;2023-08-06T15:16:46;6;6;
77777;PMS5003;66966;-34.746;138.604;2023-08-06T15:19:08;7;6;
77777;PMS5003;66966;-34.746;138.604;2023-08-06T15:21:33;4;4;
77777;PMS5003;66966;-34.746;138.604;2023-08-06T15:23:58;7;6;
77777;PMS5003;66966;-34.746;138.604;2023-08-06T15:26:23;10;7;
77777;PMS5003;66966;-34.746;138.604;2023-08-06T15:28:49;6;6;
77777;PMS5003;66966;-34.746;138.604;2023-08-06T15:31:13;6;5;
77777;PMS5003;66966;-34.746;138.604;2023-08-06T15:33:39;4;4;
77777;PMS5003;66966;-34.746;138.604;2023-08-06T15:36:04;6;5;
77777;PMS5003;66966;-34.746;138.604;2023-08-06T15:38:29;6;5;
77777;PMS5003;66966;-34.746;138.604;2023-08-06T15:40:54;5;5;
77777;PMS5003;66966;-34.746;138.604;2023-08-06T15:43:19;6;5;
77777;PMS5003;66966;-34.746;138.604;2023-08-06T15:45:44;5;5;
77777;PMS5003;66966;-34.746;138.604;2023-08-06T15:48:09;6;6;
77777;PMS5003;66966;-34.746;138.604;2023-08-06T15:50:34;4;4;
77777;PMS5003;66966;-34.746;138.604;2023-08-06T15:52:59;4;4;
77777;PMS5003;66966;-34.746;138.604;2023-08-06T15:55:24;5;4;
77777;PMS5003;66966;-34.746;138.604;2023-08-06T15:57:49;5;4;